ワシントン/ダレス の空港の天気 - METARとTAF

ワシントン・ダレス国際空港 ( KIAD / IAD ) - アメリカ バージニア州ダレス
飛行場実況気象(Metar)
観測時間04/26 06:52 EDT (04/26 10:52 UTC)
風向・風速静穏 0m/s
視程10km以上
天気現象
少しの雲 雲底高度 1520m
全天の4割程度の雲 雲底高度 6710m
全天の8割程度の雲 雲底高度 7620m
気温8.3℃
湿度71%
気圧1010.9hPa
METARKIAD 261052Z 00000KT 10SM FEW050 SCT220 BKN250 08/03 A2985 RMK AO2 SLP109 T00830033
過去の天気等 Google飛行場航空写真 Wunderground天気予報

過去48時間のMETAR

飛行場予報(TAF)
発表時間: 4/26 06:00 EDT (4/26 10:00 UTC)
予報対象時間: 26日6時 EDT ~ 27日8時 EDT
風向・風速不定 2m/s
視程10km以上
全天の8割程度の雲 雲底高度 7,620m
26日8時 EDT から
風向・風速北西 5m/s 瞬間風速 9m/s
視程10km以上
全天の4割程度の雲 雲底高度 7,620m
26日14時 EDT から
風向・風速西北西 4m/s
視程10km以上
全天の4割程度の雲 雲底高度 7,620m
26日19時 EDT から
風向・風速不定 2m/s
視程10km以上
全天の4割程度の雲 雲底高度 2,740m
全天の8割程度の雲 雲底高度 6,100m
27日5時 EDT から
風向・風速北 3m/s
視程4,830m
天気現象弱い雨
全天の8割程度の雲 雲底高度 760m
全天を覆う雲 雲底高度 1,520m
KIAD 261000Z 2610/2712 VRB04KT P6SM BKN250
FM261200 31010G18KT P6SM SCT250
FM261800 29008KT P6SM SCT250
FM262300 VRB04KT P6SM SCT090 BKN200
FM270900 01005KT 3SM -RA BKN025 OVC050